sensor_id;sensor_type;location;lat;lon;timestamp;temperature;humidity
13354;DHT22;6746;50.892;4.064;2023-09-19T00:00:08;14.40;99.90
13354;DHT22;6746;50.892;4.064;2023-09-19T00:02:56;14.40;99.90
13354;DHT22;6746;50.892;4.064;2023-09-19T00:05:34;14.40;99.90
13354;DHT22;6746;50.892;4.064;2023-09-19T00:08:09;14.40;99.90
13354;DHT22;6746;50.892;4.064;2023-09-19T00:10:50;14.40;99.90
13354;DHT22;6746;50.892;4.064;2023-09-19T00:13:28;14.40;99.90
13354;DHT22;6746;50.892;4.064;2023-09-19T00:16:16;14.50;99.90
13354;DHT22;6746;50.892;4.064;2023-09-19T00:18:59;14.40;99.90
13354;DHT22;6746;50.892;4.064;2023-09-19T00:21:38;14.50;99.90
13354;DHT22;6746;50.892;4.064;2023-09-19T00:24:26;14.40;99.90
13354;DHT22;6746;50.892;4.064;2023-09-19T00:27:04;14.40;99.90
13354;DHT22;6746;50.892;4.064;2023-09-19T00:29:43;14.40;99.90
13354;DHT22;6746;50.892;4.064;2023-09-19T00:32:21;14.40;99.90
13354;DHT22;6746;50.892;4.064;2023-09-19T00:34:59;14.40;99.90
13354;DHT22;6746;50.892;4.064;2023-09-19T00:37:41;14.40;99.90
13354;DHT22;6746;50.892;4.064;2023-09-19T00:40:19;14.40;99.90
13354;DHT22;6746;50.892;4.064;2023-09-19T00:43:02;14.40;99.90
13354;DHT22;6746;50.892;4.064;2023-09-19T00:45:43;14.40;99.90
13354;DHT22;6746;50.892;4.064;2023-09-19T00:48:30;14.40;99.90
13354;DHT22;6746;50.892;4.064;2023-09-19T00:51:09;14.30;99.90
13354;DHT22;6746;50.892;4.064;2023-09-19T00:53:47;14.30;99.90
13354;DHT22;6746;50.892;4.064;2023-09-19T00:56:25;14.30;99.90
13354;DHT22;6746;50.892;4.064;2023-09-19T00:59:04;14.30;99.90
13354;DHT22;6746;50.892;4.064;2023-09-19T01:01:52;14.30;99.90
13354;DHT22;6746;50.892;4.064;2023-09-19T01:04:30;14.30;99.90
13354;DHT22;6746;50.892;4.064;2023-09-19T01:07:09;14.30;99.90
13354;DHT22;6746;50.892;4.064;2023-09-19T01:09:53;14.20;99.90
13354;DHT22;6746;50.892;4.064;2023-09-19T01:21:48;14.30;99.90
13354;DHT22;6746;50.892;4.064;2023-09-19T01:27:49;14.30;99.90
13354;DHT22;6746;50.892;4.064;2023-09-19T01:30:32;14.30;99.90
13354;DHT22;6746;50.892;4.064;2023-09-19T01:33:09;14.30;99.90
13354;DHT22;6746;50.892;4.064;2023-09-19T01:35:50;14.30;99.90
13354;DHT22;6746;50.892;4.064;2023-09-19T01:38:28;14.30;99.90
13354;DHT22;6746;50.892;4.064;2023-09-19T01:41:14;14.20;99.90
13354;DHT22;6746;50.892;4.064;2023-09-19T01:43:53;14.20;99.90
13354;DHT22;6746;50.892;4.064;2023-09-19T01:46:41;14.30;99.90
13354;DHT22;6746;50.892;4.064;2023-09-19T01:52:20;14.30;99.90
13354;DHT22;6746;50.892;4.064;2023-09-19T01:55:05;14.40;99.90
13354;DHT22;6746;50.892;4.064;2023-09-19T01:57:45;14.40;99.90
13354;DHT22;6746;50.892;4.064;2023-09-19T02:00:20;14.40;99.90
13354;DHT22;6746;50.892;4.064;2023-09-19T02:02:58;14.50;99.90
13354;DHT22;6746;50.892;4.064;2023-09-19T02:05:52;14.50;99.90
13354;DHT22;6746;50.892;4.064;2023-09-19T02:08:35;14.50;99.90
13354;DHT22;6746;50.892;4.064;2023-09-19T02:11:14;14.50;99.90
13354;DHT22;6746;50.892;4.064;2023-09-19T02:14:02;14.60;99.90
13354;DHT22;6746;50.892;4.064;2023-09-19T02:16:40;14.60;99.90
13354;DHT22;6746;50.892;4.064;2023-09-19T02:19:19;14.60;99.90
13354;DHT22;6746;50.892;4.064;2023-09-19T02:22:05;14.60;99.90
13354;DHT22;6746;50.892;4.064;2023-09-19T02:24:43;14.50;99.90
13354;DHT22;6746;50.892;4.064;2023-09-19T02:27:21;14.50;99.90
13354;DHT22;6746;50.892;4.064;2023-09-19T02:29:59;14.50;99.90
13354;DHT22;6746;50.892;4.064;2023-09-19T02:32:45;14.50;99.90
13354;DHT22;6746;50.892;4.064;2023-09-19T02:35:23;14.40;99.90
13354;DHT22;6746;50.892;4.064;2023-09-19T02:38:12;14.40;99.90
13354;DHT22;6746;50.892;4.064;2023-09-19T02:40:50;14.40;99.90
13354;DHT22;6746;50.892;4.064;2023-09-19T02:43:28;14.40;99.90
13354;DHT22;6746;50.892;4.064;2023-09-19T02:46:07;14.30;99.90
13354;DHT22;6746;50.892;4.064;2023-09-19T02:48:45;14.40;99.90
13354;DHT22;6746;50.892;4.064;2023-09-19T02:51:23;14.40;99.90
13354;DHT22;6746;50.892;4.064;2023-09-19T02:54:01;14.40;99.90
13354;DHT22;6746;50.892;4.064;2023-09-19T02:56:47;14.40;99.90
13354;DHT22;6746;50.892;4.064;2023-09-19T02:59:25;14.50;99.90
13354;DHT22;6746;50.892;4.064;2023-09-19T03:02:14;14.50;99.90
13354;DHT22;6746;50.892;4.064;2023-09-19T03:05:01;14.50;99.90
13354;DHT22;6746;50.892;4.064;2023-09-19T03:07:50;14.50;99.90
13354;DHT22;6746;50.892;4.064;2023-09-19T03:10:38;14.60;99.90
13354;DHT22;6746;50.892;4.064;2023-09-19T03:13:26;14.60;99.90
13354;DHT22;6746;50.892;4.064;2023-09-19T03:16:04;14.50;99.90
13354;DHT22;6746;50.892;4.064;2023-09-19T03:18:42;14.60;99.90
13354;DHT22;6746;50.892;4.064;2023-09-19T03:21:30;14.50;99.90
13354;DHT22;6746;50.892;4.064;2023-09-19T03:24:18;14.50;99.90
13354;DHT22;6746;50.892;4.064;2023-09-19T03:27:08;14.40;99.90
13354;DHT22;6746;50.892;4.064;2023-09-19T03:29:55;14.30;99.90
13354;DHT22;6746;50.892;4.064;2023-09-19T03:32:36;14.20;99.90
13354;DHT22;6746;50.892;4.064;2023-09-19T03:35:14;14.20;99.90
13354;DHT22;6746;50.892;4.064;2023-09-19T03:37:52;14.10;99.90
13354;DHT22;6746;50.892;4.064;2023-09-19T03:40:30;14.10;99.90
13354;DHT22;6746;50.892;4.064;2023-09-19T03:43:09;14.20;99.90
13354;DHT22;6746;50.892;4.064;2023-09-19T03:45:47;14.20;99.90
13354;DHT22;6746;50.892;4.064;2023-09-19T03:48:25;14.10;99.90
13354;DHT22;6746;50.892;4.064;2023-09-19T03:51:03;14.10;99.90
13354;DHT22;6746;50.892;4.064;2023-09-19T03:53:47;14.10;99.90
13354;DHT22;6746;50.892;4.064;2023-09-19T03:56:25;14.10;99.90
13354;DHT22;6746;50.892;4.064;2023-09-19T03:59:13;14.10;99.90
13354;DHT22;6746;50.892;4.064;2023-09-19T04:01:51;14.10;99.90
13354;DHT22;6746;50.892;4.064;2023-09-19T04:04:29;14.00;99.90
13354;DHT22;6746;50.892;4.064;2023-09-19T04:07:15;13.90;99.90
13354;DHT22;6746;50.892;4.064;2023-09-19T04:09:53;14.00;99.90
13354;DHT22;6746;50.892;4.064;2023-09-19T04:12:32;13.90;99.90
13354;DHT22;6746;50.892;4.064;2023-09-19T04:15:10;13.80;99.90
13354;DHT22;6746;50.892;4.064;2023-09-19T04:17:49;13.80;99.90
13354;DHT22;6746;50.892;4.064;2023-09-19T04:20:26;13.80;99.90
13354;DHT22;6746;50.892;4.064;2023-09-19T04:23:05;13.80;99.90
13354;DHT22;6746;50.892;4.064;2023-09-19T04:25:43;13.70;99.90
13354;DHT22;6746;50.892;4.064;2023-09-19T04:28:31;13.70;99.90
13354;DHT22;6746;50.892;4.064;2023-09-19T04:31:09;13.60;99.90
13354;DHT22;6746;50.892;4.064;2023-09-19T04:33:47;13.60;99.90
13354;DHT22;6746;50.892;4.064;2023-09-19T04:36:28;13.60;99.90
13354;DHT22;6746;50.892;4.064;2023-09-19T04:39:06;13.60;99.90
13354;DHT22;6746;50.892;4.064;2023-09-19T04:41:54;13.50;99.90
13354;DHT22;6746;50.892;4.064;2023-09-19T04:44:42;13.50;99.90
13354;DHT22;6746;50.892;4.064;2023-09-19T04:47:30;13.50;99.90
13354;DHT22;6746;50.892;4.064;2023-09-19T04:50:10;13.50;99.90
13354;DHT22;6746;50.892;4.064;2023-09-19T04:52:49;13.50;99.90
13354;DHT22;6746;50.892;4.064;2023-09-19T04:55:26;13.50;99.90
13354;DHT22;6746;50.892;4.064;2023-09-19T04:58:07;13.50;99.90
13354;DHT22;6746;50.892;4.064;2023-09-19T05:00:45;13.60;99.90
13354;DHT22;6746;50.892;4.064;2023-09-19T05:03:25;13.50;99.90
13354;DHT22;6746;50.892;4.064;2023-09-19T05:06:04;13.50;99.90
13354;DHT22;6746;50.892;4.064;2023-09-19T05:08:44;13.60;99.90
13354;DHT22;6746;50.892;4.064;2023-09-19T05:11:32;13.70;99.90
13354;DHT22;6746;50.892;4.064;2023-09-19T05:14:11;13.70;99.90
13354;DHT22;6746;50.892;4.064;2023-09-19T05:16:51;13.80;99.90
13354;DHT22;6746;50.892;4.064;2023-09-19T05:19:31;13.80;99.90
13354;DHT22;6746;50.892;4.064;2023-09-19T05:22:09;13.90;99.90
13354;DHT22;6746;50.892;4.064;2023-09-19T05:24:47;13.90;99.90
13354;DHT22;6746;50.892;4.064;2023-09-19T05:27:28;13.90;99.90
13354;DHT22;6746;50.892;4.064;2023-09-19T05:30:07;13.90;99.90
13354;DHT22;6746;50.892;4.064;2023-09-19T05:32:37;13.80;99.90
13354;DHT22;6746;50.892;4.064;2023-09-19T05:35:06;13.90;99.90
13354;DHT22;6746;50.892;4.064;2023-09-19T05:37:35;13.90;99.90
13354;DHT22;6746;50.892;4.064;2023-09-19T05:40:06;13.80;99.90
13354;DHT22;6746;50.892;4.064;2023-09-19T05:42:42;13.90;99.90
13354;DHT22;6746;50.892;4.064;2023-09-19T05:45:11;13.90;99.90
13354;DHT22;6746;50.892;4.064;2023-09-19T05:47:40;13.90;99.90
13354;DHT22;6746;50.892;4.064;2023-09-19T05:50:16;13.90;99.90
13354;DHT22;6746;50.892;4.064;2023-09-19T05:52:52;14.00;99.90
13354;DHT22;6746;50.892;4.064;2023-09-19T05:55:21;14.00;99.90
13354;DHT22;6746;50.892;4.064;2023-09-19T05:58:00;14.00;99.90
13354;DHT22;6746;50.892;4.064;2023-09-19T06:00:31;14.00;99.90
13354;DHT22;6746;50.892;4.064;2023-09-19T06:03:02;14.10;99.90
13354;DHT22;6746;50.892;4.064;2023-09-19T06:05:30;14.10;99.90
13354;DHT22;6746;50.892;4.064;2023-09-19T06:07:59;14.20;99.90
13354;DHT22;6746;50.892;4.064;2023-09-19T06:10:31;14.20;99.90
13354;DHT22;6746;50.892;4.064;2023-09-19T06:13:01;14.30;99.90
13354;DHT22;6746;50.892;4.064;2023-09-19T06:15:38;14.30;99.90
13354;DHT22;6746;50.892;4.064;2023-09-19T06:18:10;14.30;99.90
13354;DHT22;6746;50.892;4.064;2023-09-19T06:20:36;14.40;99.90
13354;DHT22;6746;50.892;4.064;2023-09-19T06:23:07;14.40;99.90
13354;DHT22;6746;50.892;4.064;2023-09-19T06:25:36;14.50;99.90
13354;DHT22;6746;50.892;4.064;2023-09-19T06:28:15;14.60;99.90
13354;DHT22;6746;50.892;4.064;2023-09-19T06:30:43;14.60;99.90
13354;DHT22;6746;50.892;4.064;2023-09-19T06:33:13;14.60;99.90
13354;DHT22;6746;50.892;4.064;2023-09-19T06:35:52;14.70;99.90
13354;DHT22;6746;50.892;4.064;2023-09-19T06:38:20;14.70;99.90
13354;DHT22;6746;50.892;4.064;2023-09-19T06:40:51;14.70;99.90
13354;DHT22;6746;50.892;4.064;2023-09-19T06:43:20;14.80;99.90
13354;DHT22;6746;50.892;4.064;2023-09-19T06:45:50;14.80;99.90
13354;DHT22;6746;50.892;4.064;2023-09-19T06:48:19;14.80;99.90
13354;DHT22;6746;50.892;4.064;2023-09-19T06:50:48;14.90;99.90
13354;DHT22;6746;50.892;4.064;2023-09-19T06:53:27;15.00;99.90
13354;DHT22;6746;50.892;4.064;2023-09-19T06:55:55;15.10;99.90
13354;DHT22;6746;50.892;4.064;2023-09-19T06:58:32;15.10;99.90
13354;DHT22;6746;50.892;4.064;2023-09-19T07:01:00;15.20;99.90
13354;DHT22;6746;50.892;4.064;2023-09-19T07:03:29;15.30;99.90
13354;DHT22;6746;50.892;4.064;2023-09-19T07:05:58;15.40;99.90
13354;DHT22;6746;50.892;4.064;2023-09-19T07:08:27;15.50;99.90
13354;DHT22;6746;50.892;4.064;2023-09-19T07:10:56;15.60;99.90
13354;DHT22;6746;50.892;4.064;2023-09-19T07:13:28;15.80;99.90
13354;DHT22;6746;50.892;4.064;2023-09-19T07:15:57;16.10;99.90
13354;DHT22;6746;50.892;4.064;2023-09-19T07:18:28;16.10;99.90
13354;DHT22;6746;50.892;4.064;2023-09-19T07:20:57;16.20;99.90
13354;DHT22;6746;50.892;4.064;2023-09-19T07:23:36;16.30;99.90
13354;DHT22;6746;50.892;4.064;2023-09-19T07:26:12;16.40;99.90
13354;DHT22;6746;50.892;4.064;2023-09-19T07:28:41;16.50;99.90
13354;DHT22;6746;50.892;4.064;2023-09-19T07:31:13;16.60;99.90
13354;DHT22;6746;50.892;4.064;2023-09-19T07:33:42;16.80;99.90
13354;DHT22;6746;50.892;4.064;2023-09-19T07:36:11;16.70;99.90
13354;DHT22;6746;50.892;4.064;2023-09-19T07:38:40;16.70;99.90
13354;DHT22;6746;50.892;4.064;2023-09-19T07:41:19;16.80;99.90
13354;DHT22;6746;50.892;4.064;2023-09-19T07:43:57;16.90;99.90
13354;DHT22;6746;50.892;4.064;2023-09-19T07:46:35;17.00;99.90
13354;DHT22;6746;50.892;4.064;2023-09-19T07:49:13;17.10;99.90
13354;DHT22;6746;50.892;4.064;2023-09-19T07:51:45;17.20;99.90
13354;DHT22;6746;50.892;4.064;2023-09-19T07:54:14;17.40;99.90
13354;DHT22;6746;50.892;4.064;2023-09-19T07:56:51;17.60;99.90
13354;DHT22;6746;50.892;4.064;2023-09-19T07:59:20;17.60;99.90
13354;DHT22;6746;50.892;4.064;2023-09-19T08:01:51;17.60;99.90
13354;DHT22;6746;50.892;4.064;2023-09-19T08:04:20;17.90;99.90
13354;DHT22;6746;50.892;4.064;2023-09-19T08:07:08;18.10;99.90
13354;DHT22;6746;50.892;4.064;2023-09-19T08:09:47;18.30;99.90
13354;DHT22;6746;50.892;4.064;2023-09-19T08:12:25;18.20;99.90
13354;DHT22;6746;50.892;4.064;2023-09-19T08:14:54;18.40;99.90
13354;DHT22;6746;50.892;4.064;2023-09-19T08:17:22;18.20;99.90
13354;DHT22;6746;50.892;4.064;2023-09-19T08:20:01;18.20;99.90
13354;DHT22;6746;50.892;4.064;2023-09-19T08:22:49;18.20;99.90
13354;DHT22;6746;50.892;4.064;2023-09-19T08:25:25;18.40;99.90
13354;DHT22;6746;50.892;4.064;2023-09-19T08:27:54;18.50;99.90
13354;DHT22;6746;50.892;4.064;2023-09-19T08:30:36;18.70;99.90
13354;DHT22;6746;50.892;4.064;2023-09-19T08:33:14;18.70;99.90
13354;DHT22;6746;50.892;4.064;2023-09-19T08:35:55;18.70;99.90
13354;DHT22;6746;50.892;4.064;2023-09-19T08:38:31;18.70;99.90
13354;DHT22;6746;50.892;4.064;2023-09-19T08:41:09;18.70;99.90
13354;DHT22;6746;50.892;4.064;2023-09-19T08:43:47;18.90;99.90
13354;DHT22;6746;50.892;4.064;2023-09-19T08:46:16;18.90;99.90
13354;DHT22;6746;50.892;4.064;2023-09-19T08:48:54;18.80;99.90
13354;DHT22;6746;50.892;4.064;2023-09-19T08:51:41;19.00;99.90
13354;DHT22;6746;50.892;4.064;2023-09-19T08:54:28;19.00;99.90
13354;DHT22;6746;50.892;4.064;2023-09-19T08:57:07;19.30;99.90
13354;DHT22;6746;50.892;4.064;2023-09-19T08:59:44;19.40;99.90
13354;DHT22;6746;50.892;4.064;2023-09-19T09:02:32;19.40;99.90
13354;DHT22;6746;50.892;4.064;2023-09-19T09:05:01;19.40;99.90
13354;DHT22;6746;50.892;4.064;2023-09-19T09:07:30;19.30;99.90
13354;DHT22;6746;50.892;4.064;2023-09-19T09:10:09;19.30;99.90
13354;DHT22;6746;50.892;4.064;2023-09-19T09:12:47;19.10;99.90
13354;DHT22;6746;50.892;4.064;2023-09-19T09:15:25;19.00;99.90
13354;DHT22;6746;50.892;4.064;2023-09-19T09:18:04;19.10;99.90
13354;DHT22;6746;50.892;4.064;2023-09-19T09:20:32;19.10;99.90
13354;DHT22;6746;50.892;4.064;2023-09-19T09:23:06;19.10;99.90
13354;DHT22;6746;50.892;4.064;2023-09-19T09:25:53;19.00;99.90
13354;DHT22;6746;50.892;4.064;2023-09-19T09:28:29;19.10;99.90
13354;DHT22;6746;50.892;4.064;2023-09-19T09:30:59;19.20;99.90
13354;DHT22;6746;50.892;4.064;2023-09-19T09:33:38;19.30;99.90
13354;DHT22;6746;50.892;4.064;2023-09-19T09:36:16;19.30;99.90
13354;DHT22;6746;50.892;4.064;2023-09-19T09:38:59;19.10;99.90
13354;DHT22;6746;50.892;4.064;2023-09-19T09:41:38;18.90;99.90
13354;DHT22;6746;50.892;4.064;2023-09-19T09:44:17;18.90;99.90
13354;DHT22;6746;50.892;4.064;2023-09-19T09:46:51;19.00;99.90
13354;DHT22;6746;50.892;4.064;2023-09-19T09:49:26;19.00;99.90
13354;DHT22;6746;50.892;4.064;2023-09-19T09:52:02;19.10;99.90
13354;DHT22;6746;50.892;4.064;2023-09-19T09:54:34;19.10;99.90
13354;DHT22;6746;50.892;4.064;2023-09-19T09:57:06;19.00;99.90
13354;DHT22;6746;50.892;4.064;2023-09-19T09:59:53;19.00;99.90
13354;DHT22;6746;50.892;4.064;2023-09-19T10:02:27;19.20;99.90
13354;DHT22;6746;50.892;4.064;2023-09-19T10:04:58;19.40;99.90
13354;DHT22;6746;50.892;4.064;2023-09-19T10:07:36;19.60;99.90
13354;DHT22;6746;50.892;4.064;2023-09-19T10:10:11;19.80;99.90
13354;DHT22;6746;50.892;4.064;2023-09-19T10:12:42;19.80;99.90
13354;DHT22;6746;50.892;4.064;2023-09-19T10:15:10;19.80;99.90
13354;DHT22;6746;50.892;4.064;2023-09-19T10:17:38;19.70;99.90
13354;DHT22;6746;50.892;4.064;2023-09-19T10:20:16;19.80;99.90
13354;DHT22;6746;50.892;4.064;2023-09-19T10:23:03;19.80;99.90
13354;DHT22;6746;50.892;4.064;2023-09-19T10:28:29;20.10;99.90
13354;DHT22;6746;50.892;4.064;2023-09-19T10:31:08;20.00;99.90
13354;DHT22;6746;50.892;4.064;2023-09-19T10:33:46;20.10;99.90
13354;DHT22;6746;50.892;4.064;2023-09-19T10:36:24;20.00;99.90
13354;DHT22;6746;50.892;4.064;2023-09-19T10:39:02;19.90;99.90
13354;DHT22;6746;50.892;4.064;2023-09-19T10:41:43;20.00;99.90
13354;DHT22;6746;50.892;4.064;2023-09-19T10:44:12;20.20;99.90
13354;DHT22;6746;50.892;4.064;2023-09-19T10:46:40;20.30;99.90
13354;DHT22;6746;50.892;4.064;2023-09-19T10:49:18;20.40;99.90
13354;DHT22;6746;50.892;4.064;2023-09-19T10:51:46;20.40;99.90
13354;DHT22;6746;50.892;4.064;2023-09-19T10:54:25;20.50;99.90
13354;DHT22;6746;50.892;4.064;2023-09-19T10:57:10;20.50;99.90
13354;DHT22;6746;50.892;4.064;2023-09-19T11:00:08;20.60;99.90
13354;DHT22;6746;50.892;4.064;2023-09-19T11:02:33;20.50;99.90
13354;DHT22;6746;50.892;4.064;2023-09-19T11:05:12;20.50;99.90
13354;DHT22;6746;50.892;4.064;2023-09-19T11:07:59;20.50;99.90
13354;DHT22;6746;50.892;4.064;2023-09-19T11:10:48;20.70;99.90
13354;DHT22;6746;50.892;4.064;2023-09-19T11:13:29;20.80;99.90
13354;DHT22;6746;50.892;4.064;2023-09-19T11:26:48;20.70;99.90
13354;DHT22;6746;50.892;4.064;2023-09-19T11:29:27;20.60;99.90
13354;DHT22;6746;50.892;4.064;2023-09-19T11:31:55;20.70;99.90
13354;DHT22;6746;50.892;4.064;2023-09-19T11:34:44;20.90;99.90
13354;DHT22;6746;50.892;4.064;2023-09-19T11:40:07;20.90;99.90
13354;DHT22;6746;50.892;4.064;2023-09-19T11:42:44;20.80;99.90
13354;DHT22;6746;50.892;4.064;2023-09-19T11:48:35;20.90;99.90
13354;DHT22;6746;50.892;4.064;2023-09-19T11:51:24;21.00;99.90
13354;DHT22;6746;50.892;4.064;2023-09-19T11:53:58;21.00;99.90
13354;DHT22;6746;50.892;4.064;2023-09-19T11:56:26;21.00;99.90
13354;DHT22;6746;50.892;4.064;2023-09-19T11:59:08;21.10;99.90
13354;DHT22;6746;50.892;4.064;2023-09-19T12:01:42;21.00;99.90
13354;DHT22;6746;50.892;4.064;2023-09-19T12:04:11;21.20;99.90
13354;DHT22;6746;50.892;4.064;2023-09-19T12:06:56;21.20;99.90
13354;DHT22;6746;50.892;4.064;2023-09-19T12:09:27;21.00;99.90
13354;DHT22;6746;50.892;4.064;2023-09-19T12:12:03;20.90;99.90
13354;DHT22;6746;50.892;4.064;2023-09-19T12:14:42;21.00;99.90
13354;DHT22;6746;50.892;4.064;2023-09-19T12:17:36;21.00;99.90
13354;DHT22;6746;50.892;4.064;2023-09-19T12:20:15;21.10;99.90
13354;DHT22;6746;50.892;4.064;2023-09-19T12:22:53;21.20;99.90
13354;DHT22;6746;50.892;4.064;2023-09-19T12:25:41;21.00;99.90
13354;DHT22;6746;50.892;4.064;2023-09-19T12:28:12;21.00;99.90
13354;DHT22;6746;50.892;4.064;2023-09-19T12:30:48;21.20;99.90
13354;DHT22;6746;50.892;4.064;2023-09-19T12:33:19;21.50;99.90
13354;DHT22;6746;50.892;4.064;2023-09-19T12:35:53;21.60;99.90
13354;DHT22;6746;50.892;4.064;2023-09-19T12:38:26;21.70;99.90
13354;DHT22;6746;50.892;4.064;2023-09-19T12:41:10;21.70;99.90
13354;DHT22;6746;50.892;4.064;2023-09-19T12:43:39;21.40;99.90
13354;DHT22;6746;50.892;4.064;2023-09-19T12:46:08;21.20;99.90
13354;DHT22;6746;50.892;4.064;2023-09-19T12:48:47;21.10;99.90
13354;DHT22;6746;50.892;4.064;2023-09-19T12:51:25;21.10;99.90
13354;DHT22;6746;50.892;4.064;2023-09-19T12:53:56;21.20;99.90
13354;DHT22;6746;50.892;4.064;2023-09-19T12:56:22;21.10;99.90
13354;DHT22;6746;50.892;4.064;2023-09-19T12:59:01;21.10;99.90
13354;DHT22;6746;50.892;4.064;2023-09-19T13:01:42;21.10;99.90
13354;DHT22;6746;50.892;4.064;2023-09-19T13:04:22;21.20;99.90
13354;DHT22;6746;50.892;4.064;2023-09-19T13:07:01;21.20;99.90
13354;DHT22;6746;50.892;4.064;2023-09-19T13:09:30;21.10;99.90
13354;DHT22;6746;50.892;4.064;2023-09-19T13:12:36;21.20;99.90
13354;DHT22;6746;50.892;4.064;2023-09-19T13:15:15;21.40;99.90
13354;DHT22;6746;50.892;4.064;2023-09-19T13:17:46;21.60;99.90
13354;DHT22;6746;50.892;4.064;2023-09-19T13:20:26;21.70;99.90
13354;DHT22;6746;50.892;4.064;2023-09-19T13:23:07;21.70;99.90
13354;DHT22;6746;50.892;4.064;2023-09-19T13:25:45;21.90;99.90
13354;DHT22;6746;50.892;4.064;2023-09-19T13:28:14;21.90;99.90
13354;DHT22;6746;50.892;4.064;2023-09-19T13:30:43;21.70;99.90
13354;DHT22;6746;50.892;4.064;2023-09-19T13:33:21;21.60;99.90
13354;DHT22;6746;50.892;4.064;2023-09-19T13:35:57;21.30;99.90
13354;DHT22;6746;50.892;4.064;2023-09-19T13:38:26;21.10;99.90
13354;DHT22;6746;50.892;4.064;2023-09-19T13:40:55;21.20;99.90
13354;DHT22;6746;50.892;4.064;2023-09-19T13:43:24;21.40;99.90
13354;DHT22;6746;50.892;4.064;2023-09-19T13:45:56;21.50;99.90
13354;DHT22;6746;50.892;4.064;2023-09-19T13:48:25;21.50;99.90
13354;DHT22;6746;50.892;4.064;2023-09-19T13:51:03;21.50;99.90
13354;DHT22;6746;50.892;4.064;2023-09-19T13:53:51;21.40;99.90
13354;DHT22;6746;50.892;4.064;2023-09-19T13:56:25;21.20;99.90
13354;DHT22;6746;50.892;4.064;2023-09-19T13:58:54;21.20;99.90
13354;DHT22;6746;50.892;4.064;2023-09-19T14:01:23;21.10;99.90
13354;DHT22;6746;50.892;4.064;2023-09-19T14:03:52;21.20;99.90
13354;DHT22;6746;50.892;4.064;2023-09-19T14:06:21;21.10;99.90
13354;DHT22;6746;50.892;4.064;2023-09-19T14:08:50;21.10;99.90
13354;DHT22;6746;50.892;4.064;2023-09-19T14:11:21;21.20;99.90
13354;DHT22;6746;50.892;4.064;2023-09-19T14:13:50;21.30;99.90
13354;DHT22;6746;50.892;4.064;2023-09-19T14:16:28;21.40;99.90
13354;DHT22;6746;50.892;4.064;2023-09-19T14:19:00;21.30;99.90
13354;DHT22;6746;50.892;4.064;2023-09-19T14:21:29;21.20;99.90
13354;DHT22;6746;50.892;4.064;2023-09-19T14:24:06;21.20;99.90
13354;DHT22;6746;50.892;4.064;2023-09-19T14:26:37;21.30;99.90
13354;DHT22;6746;50.892;4.064;2023-09-19T14:29:09;21.30;99.90
13354;DHT22;6746;50.892;4.064;2023-09-19T14:31:38;21.20;99.90
13354;DHT22;6746;50.892;4.064;2023-09-19T14:34:14;21.10;99.90
13354;DHT22;6746;50.892;4.064;2023-09-19T14:36:46;21.00;99.90
13354;DHT22;6746;50.892;4.064;2023-09-19T14:39:24;20.90;99.90
13354;DHT22;6746;50.892;4.064;2023-09-19T14:42:02;20.60;99.90
13354;DHT22;6746;50.892;4.064;2023-09-19T14:44:31;20.60;99.90
13354;DHT22;6746;50.892;4.064;2023-09-19T14:47:00;20.40;99.90
13354;DHT22;6746;50.892;4.064;2023-09-19T14:49:38;20.40;99.90
13354;DHT22;6746;50.892;4.064;2023-09-19T14:52:07;20.20;99.90
13354;DHT22;6746;50.892;4.064;2023-09-19T14:54:38;20.20;99.90
13354;DHT22;6746;50.892;4.064;2023-09-19T14:57:14;20.00;99.90
13354;DHT22;6746;50.892;4.064;2023-09-19T14:59:43;20.00;99.90
13354;DHT22;6746;50.892;4.064;2023-09-19T15:02:22;20.00;99.90
13354;DHT22;6746;50.892;4.064;2023-09-19T15:05:00;20.00;99.90
13354;DHT22;6746;50.892;4.064;2023-09-19T15:07:38;20.00;99.90
13354;DHT22;6746;50.892;4.064;2023-09-19T15:10:16;20.00;99.90
13354;DHT22;6746;50.892;4.064;2023-09-19T15:12:54;20.10;99.90
13354;DHT22;6746;50.892;4.064;2023-09-19T15:15:32;20.00;99.90
13354;DHT22;6746;50.892;4.064;2023-09-19T15:18:16;20.00;99.90
13354;DHT22;6746;50.892;4.064;2023-09-19T15:20:47;19.90;99.90
13354;DHT22;6746;50.892;4.064;2023-09-19T15:23:16;19.80;99.90
13354;DHT22;6746;50.892;4.064;2023-09-19T15:25:55;19.70;99.90
13354;DHT22;6746;50.892;4.064;2023-09-19T15:28:33;19.70;99.90
13354;DHT22;6746;50.892;4.064;2023-09-19T15:31:11;19.70;99.90
13354;DHT22;6746;50.892;4.064;2023-09-19T15:33:49;19.80;99.90
13354;DHT22;6746;50.892;4.064;2023-09-19T15:36:27;19.80;99.90
13354;DHT22;6746;50.892;4.064;2023-09-19T15:39:15;19.90;99.90
13354;DHT22;6746;50.892;4.064;2023-09-19T15:41:54;19.90;99.90
13354;DHT22;6746;50.892;4.064;2023-09-19T15:44:32;19.80;99.90
13354;DHT22;6746;50.892;4.064;2023-09-19T15:47:10;19.80;99.90
13354;DHT22;6746;50.892;4.064;2023-09-19T15:49:48;19.80;99.90
13354;DHT22;6746;50.892;4.064;2023-09-19T15:52:26;19.80;99.90
13354;DHT22;6746;50.892;4.064;2023-09-19T15:55:04;19.70;99.90
13354;DHT22;6746;50.892;4.064;2023-09-19T15:57:43;19.70;99.90
13354;DHT22;6746;50.892;4.064;2023-09-19T16:00:21;19.60;99.90
13354;DHT22;6746;50.892;4.064;2023-09-19T16:02:57;19.60;99.90
13354;DHT22;6746;50.892;4.064;2023-09-19T16:05:26;19.60;99.90
13354;DHT22;6746;50.892;4.064;2023-09-19T16:08:14;19.70;99.90
13354;DHT22;6746;50.892;4.064;2023-09-19T16:10:53;19.60;99.90
13354;DHT22;6746;50.892;4.064;2023-09-19T16:13:31;19.60;99.90
13354;DHT22;6746;50.892;4.064;2023-09-19T16:16:09;19.60;99.90
13354;DHT22;6746;50.892;4.064;2023-09-19T16:18:51;19.60;99.90
13354;DHT22;6746;50.892;4.064;2023-09-19T16:21:28;19.50;99.90
13354;DHT22;6746;50.892;4.064;2023-09-19T16:24:06;19.50;99.90
13354;DHT22;6746;50.892;4.064;2023-09-19T16:26:44;19.50;99.90
13354;DHT22;6746;50.892;4.064;2023-09-19T16:29:16;19.40;99.90
13354;DHT22;6746;50.892;4.064;2023-09-19T16:31:45;19.40;99.90
13354;DHT22;6746;50.892;4.064;2023-09-19T16:34:23;19.40;99.90
13354;DHT22;6746;50.892;4.064;2023-09-19T16:37:01;19.40;99.90
13354;DHT22;6746;50.892;4.064;2023-09-19T16:39:39;19.40;99.90
13354;DHT22;6746;50.892;4.064;2023-09-19T16:42:18;19.30;99.90
13354;DHT22;6746;50.892;4.064;2023-09-19T16:45:06;19.30;99.90
13354;DHT22;6746;50.892;4.064;2023-09-19T16:47:44;19.30;99.90
13354;DHT22;6746;50.892;4.064;2023-09-19T16:50:16;19.20;99.90
13354;DHT22;6746;50.892;4.064;2023-09-19T16:52:47;19.20;99.90
13354;DHT22;6746;50.892;4.064;2023-09-19T16:55:25;19.10;99.90
13354;DHT22;6746;50.892;4.064;2023-09-19T16:58:04;19.10;99.90
13354;DHT22;6746;50.892;4.064;2023-09-19T17:00:36;19.10;99.90
13354;DHT22;6746;50.892;4.064;2023-09-19T17:03:12;19.00;99.90
13354;DHT22;6746;50.892;4.064;2023-09-19T17:05:50;19.00;99.90
13354;DHT22;6746;50.892;4.064;2023-09-19T17:08:29;18.90;99.90
13354;DHT22;6746;50.892;4.064;2023-09-19T17:11:04;18.90;99.90
13354;DHT22;6746;50.892;4.064;2023-09-19T17:13:29;18.80;99.90
13354;DHT22;6746;50.892;4.064;2023-09-19T17:16:04;18.90;99.90
13354;DHT22;6746;50.892;4.064;2023-09-19T17:18:35;18.80;99.90
13354;DHT22;6746;50.892;4.064;2023-09-19T17:21:13;18.70;99.90